createdAt,value
2023-02-22T00:00:50.924Z,5.80
2023-02-22T00:03:07.417Z,9.30
2023-02-22T00:05:25.674Z,6.28
2023-02-22T00:07:42.074Z,8.90
2023-02-22T00:09:58.359Z,8.60
2023-02-22T00:12:14.765Z,7.25
2023-02-22T00:14:31.258Z,7.18
2023-02-22T00:16:47.652Z,7.63
2023-02-22T00:19:03.943Z,6.93
2023-02-22T00:21:20.230Z,6.72
2023-02-22T00:23:36.579Z,7.57
2023-02-22T00:25:52.858Z,10.10
2023-02-22T00:28:09.149Z,8.38
2023-02-22T00:30:25.471Z,6.85
2023-02-22T00:32:41.792Z,9.50
2023-02-22T00:34:58.171Z,6.93
2023-02-22T00:37:14.470Z,8.18
2023-02-22T00:39:30.816Z,6.47
2023-02-22T00:41:47.146Z,9.50
2023-02-22T00:44:03.539Z,6.75
2023-02-22T00:46:19.849Z,7.85
2023-02-22T00:48:36.164Z,7.10
2023-02-22T00:50:52.430Z,8.35
2023-02-22T00:53:08.729Z,6.93
2023-02-22T00:55:25.013Z,8.32
2023-02-22T00:57:41.317Z,7.45
2023-02-22T00:59:57.587Z,12.25
2023-02-22T01:02:13.999Z,7.85
2023-02-22T01:04:30.371Z,8.07
2023-02-22T01:06:46.678Z,7.93
2023-02-22T01:09:02.968Z,7.88
2023-02-22T01:11:19.350Z,6.97
2023-02-22T01:13:35.644Z,7.45
2023-02-22T01:15:51.956Z,7.30
2023-02-22T01:18:08.262Z,8.02
2023-02-22T01:20:24.599Z,9.20
2023-02-22T01:22:40.878Z,10.98
2023-02-22T01:24:57.179Z,9.15
2023-02-22T01:27:13.560Z,7.95
2023-02-22T01:29:29.865Z,7.35
2023-02-22T01:31:46.164Z,6.35
2023-02-22T01:34:02.501Z,8.88
2023-02-22T01:36:18.809Z,10.40
2023-02-22T01:38:35.160Z,9.00
2023-02-22T01:40:51.431Z,11.13
2023-02-22T01:43:07.720Z,9.90
2023-02-22T01:45:24.028Z,10.75
2023-02-22T01:47:40.381Z,8.55
2023-02-22T01:49:56.664Z,8.98
2023-02-22T01:52:12.971Z,8.70
2023-02-22T01:54:29.210Z,9.43
2023-02-22T01:56:45.517Z,7.65
2023-02-22T01:59:01.805Z,10.98
2023-02-22T02:01:18.496Z,9.85
2023-02-22T02:03:35.016Z,9.35
2023-02-22T02:05:51.374Z,8.57
2023-02-22T02:08:07.638Z,10.48
2023-02-22T02:10:23.931Z,12.02
2023-02-22T02:12:40.236Z,10.10
2023-02-22T02:14:56.566Z,11.82
2023-02-22T02:17:12.856Z,10.52
2023-02-22T02:19:29.137Z,10.82
2023-02-22T02:21:45.410Z,8.02
2023-02-22T02:24:01.719Z,9.93
2023-02-22T02:26:18.020Z,9.65
2023-02-22T02:28:34.337Z,8.68
2023-02-22T02:30:50.641Z,8.20
2023-02-22T02:33:06.964Z,7.03
2023-02-22T02:35:23.250Z,8.13
2023-02-22T02:37:39.527Z,7.95
2023-02-22T02:39:55.822Z,8.52
2023-02-22T02:42:12.129Z,7.13
2023-02-22T02:44:28.415Z,8.48
2023-02-22T02:46:44.675Z,8.07
2023-02-22T02:49:01.160Z,7.80
2023-02-22T02:51:17.642Z,8.50
2023-02-22T02:53:34.105Z,11.02
2023-02-22T02:55:50.369Z,8.00
2023-02-22T02:58:06.769Z,10.48
2023-02-22T03:00:23.102Z,10.52
2023-02-22T03:02:39.568Z,6.70
2023-02-22T03:04:55.881Z,10.68
2023-02-22T03:07:12.188Z,8.77
2023-02-22T03:09:28.616Z,7.85
2023-02-22T03:11:44.855Z,9.27
2023-02-22T03:14:01.167Z,8.80
2023-02-22T03:16:17.468Z,9.90
2023-02-22T03:18:33.824Z,8.85
2023-02-22T03:20:50.092Z,9.80
2023-02-22T03:23:06.359Z,8.60
2023-02-22T03:25:22.648Z,7.22
2023-02-22T03:27:38.957Z,8.68
2023-02-22T03:29:55.231Z,7.60
2023-02-22T03:32:11.564Z,11.75
2023-02-22T03:34:28.006Z,9.07
2023-02-22T03:36:44.281Z,8.40
2023-02-22T03:39:00.515Z,9.68
2023-02-22T03:41:17.026Z,7.82
2023-02-22T03:43:33.521Z,7.60
2023-02-22T03:45:49.849Z,8.40
2023-02-22T03:48:06.137Z,10.93
2023-02-22T03:50:22.391Z,8.85
2023-02-22T03:52:38.653Z,11.13
2023-02-22T03:54:55.054Z,7.82
2023-02-22T03:57:11.341Z,10.10
2023-02-22T03:59:27.779Z,7.85
2023-02-22T04:01:44.112Z,8.82
2023-02-22T04:04:00.441Z,7.65
2023-02-22T04:06:16.684Z,6.60
2023-02-22T04:08:32.963Z,9.68
2023-02-22T04:10:49.215Z,12.55
2023-02-22T04:13:05.534Z,10.85
2023-02-22T04:15:21.789Z,10.35
2023-02-22T04:17:38.041Z,9.80
2023-02-22T04:19:54.344Z,9.88
2023-02-22T04:22:10.650Z,8.48
2023-02-22T04:24:27.738Z,10.32
2023-02-22T04:26:45.324Z,10.77
2023-02-22T04:29:01.584Z,10.27
2023-02-22T04:31:18.138Z,7.57
2023-02-22T04:33:34.612Z,8.70
2023-02-22T04:35:50.888Z,8.35
2023-02-22T04:38:07.164Z,10.18
2023-02-22T04:40:23.477Z,10.90
2023-02-22T04:42:39.722Z,8.85
2023-02-22T04:44:55.992Z,9.20
2023-02-22T04:47:12.260Z,10.48
2023-02-22T04:49:28.533Z,10.00
2023-02-22T04:51:44.789Z,11.50
2023-02-22T04:54:01.056Z,8.65
2023-02-22T04:56:17.339Z,10.95
2023-02-22T04:58:33.800Z,13.10
2023-02-22T05:00:50.099Z,10.20
2023-02-22T05:03:06.407Z,10.15
2023-02-22T05:05:22.667Z,9.68
2023-02-22T05:07:38.948Z,8.27
2023-02-22T05:09:55.200Z,11.75
2023-02-22T05:12:11.474Z,16.67
2023-02-22T05:14:27.734Z,13.18
2023-02-22T05:16:44.052Z,13.25
2023-02-22T05:19:00.366Z,9.70
2023-02-22T05:21:16.870Z,9.95
2023-02-22T05:23:33.303Z,11.60
2023-02-22T05:25:49.596Z,11.23
2023-02-22T05:28:05.906Z,9.55
2023-02-22T05:30:22.170Z,9.13
2023-02-22T05:32:38.461Z,9.70
2023-02-22T05:34:54.753Z,10.13
2023-02-22T05:37:11.126Z,8.88
2023-02-22T05:39:27.395Z,10.57
2023-02-22T05:41:43.659Z,10.00
2023-02-22T05:43:59.986Z,8.73
2023-02-22T05:46:16.266Z,11.32
2023-02-22T05:48:32.557Z,10.80
2023-02-22T05:50:48.818Z,11.05
2023-02-22T05:53:05.121Z,11.45
2023-02-22T05:55:21.414Z,10.73
2023-02-22T05:57:37.720Z,9.15
2023-02-22T05:59:54.019Z,11.80
2023-02-22T06:02:10.374Z,11.38
2023-02-22T06:04:26.656Z,10.95
2023-02-22T06:06:42.914Z,11.88
2023-02-22T06:08:59.184Z,9.50
2023-02-22T06:11:15.752Z,12.35
2023-02-22T06:13:32.304Z,9.90
2023-02-22T06:15:48.590Z,11.65
2023-02-22T06:18:04.873Z,10.60
2023-02-22T06:20:21.173Z,10.52
2023-02-22T06:22:37.429Z,8.70
2023-02-22T06:24:55.098Z,11.23
2023-02-22T06:27:11.436Z,17.48
2023-02-22T06:29:27.751Z,17.25
2023-02-22T06:31:44.102Z,14.52
2023-02-22T06:34:00.398Z,13.02
2023-02-22T06:36:16.653Z,11.48
2023-02-22T06:38:32.975Z,15.07
2023-02-22T06:40:49.275Z,12.48
2023-02-22T06:43:05.540Z,13.27
2023-02-22T06:45:21.898Z,12.80
2023-02-22T06:47:38.289Z,12.05
2023-02-22T06:49:54.565Z,11.40
2023-02-22T06:52:10.987Z,13.63
2023-02-22T06:54:27.235Z,17.13
2023-02-22T06:56:43.517Z,13.05
2023-02-22T06:59:02.481Z,11.35
2023-02-22T07:01:19.216Z,13.40
2023-02-22T07:03:35.742Z,15.25
2023-02-22T07:05:52.126Z,16.08
2023-02-22T07:08:08.502Z,15.65
2023-02-22T07:10:24.793Z,11.77
2023-02-22T07:12:41.059Z,14.07
2023-02-22T07:14:57.415Z,10.95
2023-02-22T07:17:13.681Z,20.80
2023-02-22T07:19:29.958Z,17.02
2023-02-22T07:21:46.216Z,25.17
2023-02-22T07:24:04.567Z,28.23
2023-02-22T07:26:21.710Z,19.35
2023-02-22T07:28:37.993Z,21.88
2023-02-22T07:30:54.286Z,14.38
2023-02-22T07:33:10.656Z,16.40
2023-02-22T07:35:26.957Z,21.05
2023-02-22T07:37:43.224Z,15.40
2023-02-22T07:39:59.591Z,18.58
2023-02-22T07:42:15.916Z,15.57
2023-02-22T07:44:32.202Z,17.55
2023-02-22T07:46:48.462Z,14.70
2023-02-22T07:49:04.727Z,15.75
2023-02-22T07:51:21.016Z,14.77
2023-02-22T07:53:37.286Z,12.90
2023-02-22T07:55:53.542Z,15.13
2023-02-22T07:58:09.801Z,13.80
2023-02-22T08:00:26.149Z,13.82
2023-02-22T08:02:42.488Z,13.43
2023-02-22T08:04:58.789Z,13.60
2023-02-22T08:07:15.216Z,12.77
2023-02-22T08:09:31.538Z,13.05
2023-02-22T08:11:47.825Z,12.63
2023-02-22T08:14:04.098Z,14.57
2023-02-22T08:16:20.376Z,14.02
2023-02-22T08:18:36.977Z,16.38
2023-02-22T08:20:53.261Z,16.27
2023-02-22T08:23:09.538Z,17.60
2023-02-22T08:25:25.769Z,17.30
2023-02-22T08:27:42.028Z,22.40
2023-02-22T08:29:58.276Z,21.48
2023-02-22T08:32:14.580Z,22.02
2023-02-22T08:34:30.965Z,18.30
2023-02-22T08:36:47.428Z,15.73
2023-02-22T08:39:03.720Z,15.23
2023-02-22T08:41:20.043Z,15.43
2023-02-22T08:43:36.348Z,12.07
2023-02-22T08:45:52.899Z,12.63
2023-02-22T08:48:09.905Z,9.65
2023-02-22T08:50:26.182Z,12.68
2023-02-22T08:52:42.499Z,12.98
2023-02-22T08:54:58.934Z,12.60
2023-02-22T08:57:15.203Z,16.35
2023-02-22T08:59:31.481Z,11.40
2023-02-22T09:01:47.744Z,10.40
2023-02-22T09:04:04.031Z,12.50
2023-02-22T09:06:20.391Z,10.77
2023-02-22T09:08:36.701Z,12.70
2023-02-22T09:10:53.067Z,9.82
2023-02-22T09:13:09.403Z,10.50
2023-02-22T09:15:25.688Z,10.80
2023-02-22T09:17:41.975Z,15.32
2023-02-22T09:19:58.249Z,10.15
2023-02-22T09:22:14.558Z,9.38
2023-02-22T09:24:30.800Z,11.23
2023-02-22T09:26:47.057Z,15.90
2023-02-22T09:29:03.329Z,11.50
2023-02-22T09:31:20.194Z,11.77
2023-02-22T09:33:36.786Z,9.63
2023-02-22T09:35:53.048Z,10.57
2023-02-22T09:38:09.338Z,9.50
2023-02-22T09:40:25.634Z,9.88
2023-02-22T09:42:42.097Z,10.13
2023-02-22T09:44:58.417Z,10.27
2023-02-22T09:47:14.700Z,10.77
2023-02-22T09:49:31.066Z,9.32
2023-02-22T09:51:47.313Z,10.00
2023-02-22T09:54:03.565Z,10.68
2023-02-22T09:56:20.056Z,11.05
2023-02-22T09:58:36.552Z,10.63
2023-02-22T10:00:52.902Z,12.48
2023-02-22T10:03:09.153Z,12.60
2023-02-22T10:05:25.461Z,13.77
2023-02-22T10:07:41.777Z,14.30
2023-02-22T10:09:58.038Z,13.27
2023-02-22T10:12:14.343Z,13.52
2023-02-22T10:14:30.620Z,13.57
2023-02-22T10:16:46.980Z,18.58
2023-02-22T10:19:03.283Z,13.30
2023-02-22T10:21:19.573Z,12.25
2023-02-22T10:23:35.908Z,14.35
2023-02-22T10:25:52.260Z,15.90
2023-02-22T10:28:08.504Z,16.67
2023-02-22T10:30:25.776Z,17.77
2023-02-22T10:32:42.207Z,17.48
2023-02-22T10:34:58.496Z,14.90
2023-02-22T10:37:14.818Z,16.90
2023-02-22T10:39:31.179Z,16.30
2023-02-22T10:41:47.500Z,17.70
2023-02-22T10:44:03.833Z,16.73
2023-02-22T10:46:20.594Z,22.25
2023-02-22T10:48:36.961Z,14.68
2023-02-22T10:50:53.269Z,16.33
2023-02-22T10:53:09.578Z,17.60
2023-02-22T10:55:25.878Z,16.42
2023-02-22T10:57:42.165Z,19.15
2023-02-22T10:59:58.457Z,16.30
2023-02-22T11:02:14.947Z,17.35
2023-02-22T11:04:31.296Z,21.30
2023-02-22T11:06:47.553Z,27.13
2023-02-22T11:09:03.841Z,18.63
2023-02-22T11:11:20.147Z,21.27
2023-02-22T11:13:36.442Z,19.85
2023-02-22T11:15:52.702Z,21.35
2023-02-22T11:18:08.992Z,22.58
2023-02-22T11:20:25.326Z,18.33
2023-02-22T11:22:41.659Z,15.98
2023-02-22T11:24:57.932Z,17.52
2023-02-22T11:27:14.210Z,17.23
2023-02-22T11:29:30.481Z,14.18
2023-02-22T11:31:46.770Z,16.67
2023-02-22T11:34:03.270Z,21.25
2023-02-22T11:36:19.531Z,16.73
2023-02-22T11:38:35.846Z,18.25
2023-02-22T11:40:52.102Z,16.90
2023-02-22T11:43:08.392Z,16.45
2023-02-22T11:45:24.651Z,17.38
2023-02-22T11:47:40.991Z,16.58
2023-02-22T11:49:57.237Z,15.43
2023-02-22T11:52:13.515Z,14.73
2023-02-22T11:54:29.764Z,12.82
2023-02-22T11:56:46.105Z,15.15
2023-02-22T11:59:02.520Z,12.57
2023-02-22T12:01:18.780Z,12.70
2023-02-22T12:03:35.105Z,13.40
2023-02-22T12:05:51.457Z,13.38
2023-02-22T12:08:18.930Z,13.15
2023-02-22T12:10:36.192Z,13.63
2023-02-22T12:12:52.466Z,14.15
2023-02-22T12:15:08.776Z,14.00
2023-02-22T12:17:25.048Z,15.13
2023-02-22T12:19:41.353Z,15.32
2023-02-22T12:21:57.636Z,15.43
2023-02-22T12:24:13.974Z,18.42
2023-02-22T12:26:30.257Z,13.85
2023-02-22T12:28:46.729Z,12.13
2023-02-22T12:31:03.034Z,12.63
2023-02-22T12:33:19.408Z,17.83
2023-02-22T12:35:35.724Z,12.88
2023-02-22T12:37:52.011Z,14.20
2023-02-22T12:40:08.388Z,15.18
2023-02-22T12:42:24.831Z,15.07
2023-02-22T12:44:41.125Z,13.55
2023-02-22T12:46:57.400Z,12.02
2023-02-22T12:49:13.653Z,16.77
2023-02-22T12:51:29.988Z,15.50
2023-02-22T12:53:46.272Z,12.25
2023-02-22T12:56:02.535Z,15.32
2023-02-22T12:58:19.103Z,14.43
2023-02-22T13:00:35.440Z,14.23
2023-02-22T13:02:51.904Z,13.05
2023-02-22T13:05:08.238Z,14.18
2023-02-22T13:07:24.617Z,15.45
2023-02-22T13:09:40.921Z,15.60
2023-02-22T13:11:57.212Z,15.90
2023-02-22T13:14:13.494Z,15.27
2023-02-22T13:16:29.829Z,16.45
2023-02-22T13:18:46.181Z,16.70
2023-02-22T13:21:02.506Z,15.15
2023-02-22T13:23:18.784Z,14.05
2023-02-22T13:25:35.074Z,17.45
2023-02-22T13:27:51.405Z,16.02
2023-02-22T13:30:07.690Z,17.13
2023-02-22T13:32:24.228Z,17.85
2023-02-22T13:34:40.576Z,16.80
2023-02-22T13:36:56.862Z,16.35
2023-02-22T13:39:13.120Z,13.98
2023-02-22T13:41:29.370Z,19.95
2023-02-22T13:43:45.737Z,14.65
2023-02-22T13:46:02.135Z,19.80
2023-02-22T13:48:18.446Z,20.38
2023-02-22T13:50:34.750Z,23.70
2023-02-22T13:52:51.048Z,22.52
2023-02-22T13:55:07.329Z,21.20
2023-02-22T13:57:23.618Z,20.50
2023-02-22T13:59:39.870Z,22.58
2023-02-22T14:01:56.200Z,24.10
2023-02-22T14:04:12.601Z,25.30
2023-02-22T14:06:28.857Z,22.48
2023-02-22T14:08:45.111Z,23.90
2023-02-22T14:11:01.384Z,22.65
2023-02-22T14:13:17.719Z,23.38
2023-02-22T14:15:34.085Z,24.52
2023-02-22T14:17:50.383Z,23.70
2023-02-22T14:20:06.701Z,22.95
2023-02-22T14:22:23.004Z,26.33
2023-02-22T14:24:39.256Z,24.58
2023-02-22T14:26:55.538Z,22.77
2023-02-22T14:29:11.790Z,23.27
2023-02-22T14:31:37.272Z,26.10
2023-02-22T14:33:53.770Z,22.60
2023-02-22T14:36:10.036Z,26.30
2023-02-22T14:38:26.296Z,22.60
2023-02-22T14:40:42.591Z,22.10
2023-02-22T14:42:58.865Z,23.67
2023-02-22T14:45:15.136Z,27.30
2023-02-22T14:47:31.431Z,26.35
2023-02-22T14:49:47.758Z,22.38
2023-02-22T14:52:04.019Z,24.23
2023-02-22T14:54:20.268Z,25.85
2023-02-22T14:56:36.572Z,25.73
2023-02-22T14:58:52.875Z,25.80
2023-02-22T15:01:09.167Z,25.40
2023-02-22T15:03:25.445Z,22.73
2023-02-22T15:05:41.711Z,25.33
2023-02-22T15:07:58.034Z,29.10
2023-02-22T15:10:14.335Z,25.17
2023-02-22T15:12:30.652Z,24.70
2023-02-22T15:14:46.958Z,25.70
2023-02-22T15:17:03.250Z,25.23
2023-02-22T15:19:21.026Z,25.00
2023-02-22T15:21:37.312Z,25.23
2023-02-22T15:23:53.579Z,28.48
2023-02-22T15:26:09.978Z,28.23
2023-02-22T15:28:26.287Z,27.08
2023-02-22T15:30:42.613Z,26.08
2023-02-22T15:33:04.467Z,29.95
2023-02-22T15:35:21.153Z,26.90
2023-02-22T15:37:37.418Z,28.55
2023-02-22T15:39:53.674Z,27.92
2023-02-22T15:42:09.943Z,31.88
2023-02-22T15:44:26.258Z,26.80
2023-02-22T15:46:42.507Z,26.17
2023-02-22T15:48:58.811Z,28.20
2023-02-22T15:51:15.500Z,27.75
2023-02-22T15:53:32.058Z,29.35
2023-02-22T15:55:48.342Z,49.53
2023-02-22T15:58:04.622Z,50.83
2023-02-22T16:00:20.899Z,43.83
2023-02-22T16:02:37.251Z,33.60
2023-02-22T16:04:59.620Z,33.45
2023-02-22T16:07:16.242Z,34.38
2023-02-22T16:09:32.738Z,39.88
2023-02-22T16:11:49.061Z,31.75
2023-02-22T16:14:05.388Z,33.10
2023-02-22T16:16:21.707Z,38.78
2023-02-22T16:18:37.989Z,39.28
2023-02-22T16:20:54.305Z,36.40
2023-02-22T16:23:10.616Z,32.83
2023-02-22T16:25:26.911Z,44.72
2023-02-22T16:27:43.399Z,38.53
2023-02-22T16:29:59.795Z,33.13
2023-02-22T16:32:16.161Z,35.13
2023-02-22T16:34:32.477Z,32.38
2023-02-22T16:36:48.724Z,31.23
2023-02-22T16:39:05.062Z,32.60
2023-02-22T16:41:21.481Z,34.83
2023-02-22T16:43:37.851Z,33.30
2023-02-22T16:45:54.228Z,40.25
2023-02-22T16:48:10.539Z,57.47
2023-02-22T16:50:26.826Z,50.95
2023-02-22T16:52:43.075Z,80.60
2023-02-22T16:54:59.377Z,123.18
2023-02-22T16:57:15.699Z,81.45
2023-02-22T16:59:32.029Z,44.97
2023-02-22T17:01:48.335Z,48.05
2023-02-22T17:04:04.617Z,45.30
2023-02-22T17:06:20.932Z,39.33
2023-02-22T17:08:37.173Z,36.30
2023-02-22T17:10:53.453Z,37.63
2023-02-22T17:13:21.892Z,34.83
2023-02-22T17:15:40.058Z,38.67
2023-02-22T17:17:56.386Z,36.78
2023-02-22T17:20:12.678Z,40.88
2023-02-22T17:22:28.939Z,38.05
2023-02-22T17:24:45.388Z,35.30
2023-02-22T17:27:01.667Z,38.28
2023-02-22T17:29:17.949Z,33.40
2023-02-22T17:31:34.263Z,32.53
2023-02-22T17:33:50.605Z,29.98
2023-02-22T17:36:06.938Z,27.33
2023-02-22T17:38:23.230Z,27.98
2023-02-22T17:40:39.531Z,28.48
2023-02-22T17:42:55.890Z,27.60
2023-02-22T17:45:12.140Z,32.65
2023-02-22T17:47:28.436Z,34.33
2023-02-22T17:49:44.762Z,29.05
2023-02-22T17:52:01.203Z,29.75
2023-02-22T17:54:17.519Z,33.53
2023-02-22T17:56:33.775Z,35.45
2023-02-22T17:58:50.142Z,35.10
2023-02-22T18:01:06.946Z,30.83
2023-02-22T18:03:23.598Z,33.63
2023-02-22T18:05:40.226Z,27.63
2023-02-22T18:07:56.515Z,30.30
2023-02-22T18:10:13.290Z,29.27
2023-02-22T18:12:29.748Z,29.60
2023-02-22T18:14:46.515Z,30.35
2023-02-22T18:17:02.966Z,28.38
2023-02-22T18:19:22.090Z,26.90
2023-02-22T18:21:39.830Z,41.55
2023-02-22T18:23:56.281Z,43.03
2023-02-22T18:26:12.700Z,38.33
2023-02-22T18:28:29.228Z,37.25
2023-02-22T18:30:45.567Z,28.65
2023-02-22T18:33:02.267Z,27.23
2023-02-22T18:35:18.730Z,29.30
2023-02-22T18:37:35.487Z,37.40
2023-02-22T18:39:52.197Z,28.55
2023-02-22T18:42:08.868Z,30.02
2023-02-22T18:44:25.176Z,33.03
2023-02-22T18:46:41.632Z,35.42
2023-02-22T18:48:58.013Z,38.88
2023-02-22T18:51:14.620Z,44.38
2023-02-22T18:53:31.054Z,48.30
2023-02-22T18:55:47.767Z,50.60
2023-02-22T18:58:04.225Z,52.58
2023-02-22T19:00:20.571Z,44.38
2023-02-22T19:02:37.016Z,50.50
2023-02-22T19:04:53.732Z,48.08
2023-02-22T19:07:10.066Z,43.90
2023-02-22T19:09:26.480Z,47.55
2023-02-22T19:11:42.809Z,44.58
2023-02-22T19:13:59.528Z,36.72
2023-02-22T19:16:16.126Z,33.58
2023-02-22T19:18:32.905Z,35.13
2023-02-22T19:20:49.802Z,34.67
2023-02-22T19:23:06.514Z,38.63
2023-02-22T19:25:22.925Z,32.83
2023-02-22T19:27:39.347Z,31.30
2023-02-22T19:29:55.658Z,31.70
2023-02-22T19:32:12.346Z,28.42
2023-02-22T19:34:28.728Z,31.58
2023-02-22T19:36:45.170Z,27.73
2023-02-22T19:39:01.665Z,26.63
2023-02-22T19:41:18.539Z,28.00
2023-02-22T19:43:35.157Z,28.08
2023-02-22T19:45:51.918Z,29.80
2023-02-22T19:48:08.246Z,26.38
2023-02-22T19:50:24.884Z,26.77
2023-02-22T19:52:41.201Z,27.27
2023-02-22T19:54:57.609Z,30.98
2023-02-22T19:57:14.051Z,26.35
2023-02-22T19:59:30.427Z,26.25
2023-02-22T20:01:46.803Z,31.20
2023-02-22T20:04:03.608Z,27.30
2023-02-22T20:06:20.295Z,30.55
2023-02-22T20:08:36.723Z,27.48
2023-02-22T20:10:53.082Z,25.30
2023-02-22T20:13:09.510Z,26.52
2023-02-22T20:15:25.942Z,26.20
2023-02-22T20:17:42.602Z,28.73
2023-02-22T20:19:59.289Z,29.02
2023-02-22T20:22:15.662Z,27.60
2023-02-22T20:24:32.343Z,29.45
2023-02-22T20:26:49.023Z,33.92
2023-02-22T20:29:05.810Z,30.85
2023-02-22T20:31:22.330Z,34.97
2023-02-22T20:33:38.857Z,33.40
2023-02-22T20:35:55.605Z,28.05
2023-02-22T20:38:12.031Z,33.90
2023-02-22T20:40:28.468Z,35.45
2023-02-22T20:42:44.815Z,35.15
2023-02-22T20:45:01.245Z,32.33
2023-02-22T20:47:17.720Z,33.40
2023-02-22T20:49:34.019Z,39.70
2023-02-22T20:51:50.810Z,30.65
2023-02-22T20:54:07.561Z,33.95
2023-02-22T20:56:23.969Z,32.15
2023-02-22T20:58:40.259Z,42.22
2023-02-22T21:00:56.899Z,35.40
2023-02-22T21:03:13.371Z,35.33
2023-02-22T21:05:29.733Z,34.40
2023-02-22T21:07:46.661Z,31.88
2023-02-22T21:10:03.512Z,33.45
2023-02-22T21:12:20.336Z,32.90
2023-02-22T21:14:36.721Z,34.78
2023-02-22T21:16:53.140Z,34.50
2023-02-22T21:19:09.793Z,31.98
2023-02-22T21:21:26.744Z,36.78
2023-02-22T21:23:43.068Z,36.83
2023-02-22T21:25:59.801Z,36.22
2023-02-22T21:28:16.190Z,34.47
2023-02-22T21:30:32.840Z,38.50
2023-02-22T21:32:49.688Z,36.95
2023-02-22T21:35:06.287Z,33.22
2023-02-22T21:37:22.644Z,33.47
2023-02-22T21:39:38.995Z,36.55
2023-02-22T21:41:55.788Z,35.53
2023-02-22T21:44:12.504Z,34.90
2023-02-22T21:46:29.260Z,35.42
2023-02-22T21:48:45.773Z,38.55
2023-02-22T21:51:02.265Z,37.20
2023-02-22T21:53:18.985Z,36.08
2023-02-22T21:55:35.283Z,35.63
2023-02-22T21:57:52.214Z,38.33
2023-02-22T22:00:08.998Z,38.42
2023-02-22T22:02:25.551Z,35.60
2023-02-22T22:04:42.380Z,40.15
2023-02-22T22:06:59.005Z,37.17
2023-02-22T22:09:15.777Z,41.08
2023-02-22T22:11:33.451Z,40.15
2023-02-22T22:13:50.606Z,37.47
2023-02-22T22:16:07.755Z,37.28
2023-02-22T22:18:27.684Z,37.95
2023-02-22T22:20:45.067Z,40.00
2023-02-22T22:23:02.508Z,38.92
2023-02-22T22:25:19.059Z,35.22
2023-02-22T22:27:35.830Z,36.95
2023-02-22T22:29:52.210Z,38.90
2023-02-22T22:32:09.646Z,43.20
2023-02-22T22:34:26.249Z,40.15
2023-02-22T22:36:42.998Z,40.20
2023-02-22T22:39:00.048Z,36.42
2023-02-22T22:41:18.069Z,38.30
2023-02-22T22:43:34.591Z,40.00
2023-02-22T22:45:51.296Z,37.47
2023-02-22T22:48:07.634Z,42.00
2023-02-22T22:50:24.544Z,40.92
2023-02-22T22:52:41.123Z,40.30
2023-02-22T22:54:57.549Z,40.20
2023-02-22T22:57:13.877Z,45.53
2023-02-22T22:59:30.642Z,42.70
2023-02-22T23:01:47.457Z,45.10
2023-02-22T23:04:04.286Z,43.40
2023-02-22T23:06:20.664Z,43.40
2023-02-22T23:08:37.062Z,37.45
2023-02-22T23:10:53.576Z,39.28
2023-02-22T23:13:09.941Z,44.72
2023-02-22T23:15:26.303Z,49.67
2023-02-22T23:17:42.982Z,60.25
2023-02-22T23:19:59.303Z,58.75
2023-02-22T23:22:18.167Z,52.47
2023-02-22T23:24:34.597Z,53.90
2023-02-22T23:26:51.328Z,52.75
2023-02-22T23:29:07.926Z,46.67
2023-02-22T23:31:24.690Z,48.88
2023-02-22T23:33:41.512Z,44.20
2023-02-22T23:35:58.068Z,47.67
2023-02-22T23:38:14.798Z,47.75
2023-02-22T23:40:31.161Z,46.05
2023-02-22T23:42:47.650Z,44.40
2023-02-22T23:45:04.426Z,46.42
2023-02-22T23:47:21.053Z,43.70
2023-02-22T23:49:37.599Z,43.85
2023-02-22T23:51:54.145Z,43.47
2023-02-22T23:54:10.567Z,49.58
2023-02-22T23:56:27.123Z,45.42
2023-02-22T23:58:43.821Z,46.33
